createdAt,value
2018-08-31T00:00:09.746Z,1.90
2018-08-31T00:02:49.008Z,2.47
2018-08-31T00:05:52.104Z,2.37
2018-08-31T00:09:13.308Z,1.70
2018-08-31T00:12:00.435Z,1.37
2018-08-31T00:14:29.122Z,1.93
2018-08-31T00:16:59.873Z,1.60
2018-08-31T00:19:28.521Z,1.83
2018-08-31T00:22:02.957Z,1.67
2018-08-31T00:24:43.470Z,1.80
2018-08-31T00:27:24.520Z,1.57
2018-08-31T00:30:05.461Z,1.53
2018-08-31T00:45:35.551Z,1.40
2018-08-31T00:48:04.476Z,1.70
2018-08-31T00:50:33.437Z,1.47
2018-08-31T00:53:02.475Z,1.20
2018-08-31T00:55:31.452Z,1.70
2018-08-31T00:58:00.684Z,1.73
2018-08-31T01:00:29.183Z,2.20
2018-08-31T01:02:57.848Z,1.60
2018-08-31T01:05:26.481Z,1.60
2018-08-31T01:07:55.454Z,1.67
2018-08-31T01:10:24.836Z,1.73
2018-08-31T01:12:54.132Z,1.60
2018-08-31T01:15:22.677Z,1.80
2018-08-31T01:17:51.200Z,1.70
2018-08-31T01:20:20.293Z,1.67
2018-08-31T01:22:49.095Z,2.27
2018-08-31T01:25:17.692Z,2.10
2018-08-31T01:27:46.222Z,1.67
2018-08-31T01:30:15.125Z,1.30
2018-08-31T01:32:43.711Z,1.63
2018-08-31T01:35:12.809Z,2.00
2018-08-31T01:37:46.207Z,1.30
2018-08-31T01:40:14.823Z,2.90
2018-08-31T01:42:43.689Z,1.63
2018-08-31T01:45:12.324Z,1.70
2018-08-31T01:47:43.395Z,1.33
2018-08-31T01:50:12.056Z,1.53
2018-08-31T01:52:40.663Z,1.50
2018-08-31T01:55:09.525Z,1.50
2018-08-31T01:57:38.028Z,1.33
2018-08-31T02:00:07.185Z,1.40
2018-08-31T02:02:35.783Z,2.50
2018-08-31T02:05:04.538Z,1.30
2018-08-31T02:07:33.186Z,1.77
2018-08-31T02:10:02.032Z,1.60
2018-08-31T02:12:31.156Z,1.67
2018-08-31T02:15:00.828Z,1.40
2018-08-31T02:17:29.512Z,1.47
2018-08-31T02:19:58.201Z,1.93
2018-08-31T02:22:26.761Z,1.47
2018-08-31T02:24:56.506Z,1.30
2018-08-31T02:27:25.194Z,1.60
2018-08-31T02:29:53.782Z,1.50
2018-08-31T02:32:22.331Z,1.40
2018-08-31T02:34:50.848Z,1.60
2018-08-31T02:37:19.791Z,1.80
2018-08-31T02:39:48.373Z,1.60
2018-08-31T02:42:16.924Z,1.57
2018-08-31T02:44:45.678Z,1.27
2018-08-31T02:47:14.210Z,1.60
2018-08-31T02:49:48.977Z,1.40
2018-08-31T02:52:17.590Z,1.50
2018-08-31T02:54:49.660Z,1.70
2018-08-31T02:57:18.143Z,1.23
2018-08-31T02:59:47.107Z,1.10
2018-08-31T03:02:15.818Z,0.97
2018-08-31T03:04:44.381Z,1.30
2018-08-31T03:07:13.088Z,1.30
2018-08-31T03:09:41.710Z,1.20
2018-08-31T03:12:10.284Z,1.67
2018-08-31T03:14:38.985Z,1.53
2018-08-31T03:17:09.662Z,1.50
2018-08-31T03:19:38.253Z,1.80
2018-08-31T03:22:07.121Z,1.17
2018-08-31T03:24:35.762Z,1.50
2018-08-31T03:27:04.701Z,1.70
2018-08-31T03:29:33.419Z,1.50
2018-08-31T03:32:02.033Z,1.77
2018-08-31T03:34:30.775Z,1.40
2018-08-31T03:36:59.410Z,1.50
2018-08-31T03:39:27.913Z,1.30
2018-08-31T03:41:56.542Z,1.50
2018-08-31T03:44:25.209Z,1.20
2018-08-31T03:46:53.899Z,1.70
2018-08-31T03:49:22.384Z,1.77
2018-08-31T03:51:53.226Z,1.70
2018-08-31T03:54:21.926Z,1.70
2018-08-31T03:56:50.946Z,1.50
2018-08-31T03:59:19.615Z,1.60
2018-08-31T04:01:48.104Z,1.40
2018-08-31T04:04:16.685Z,1.67
2018-08-31T04:06:45.441Z,2.00
2018-08-31T04:09:14.058Z,1.60
2018-08-31T04:11:46.893Z,1.83
2018-08-31T04:14:15.558Z,1.73
2018-08-31T04:16:44.489Z,1.60
2018-08-31T04:19:15.944Z,1.60
2018-08-31T04:21:45.411Z,1.50
2018-08-31T04:24:15.322Z,1.90
2018-08-31T04:26:44.357Z,1.87
2018-08-31T04:29:13.192Z,2.23
2018-08-31T04:31:43.155Z,1.60
2018-08-31T04:34:12.497Z,1.83
2018-08-31T04:36:42.067Z,1.73
2018-08-31T04:39:12.120Z,1.70
2018-08-31T04:41:41.719Z,2.30
2018-08-31T04:44:10.366Z,1.90
2018-08-31T04:46:39.091Z,1.70
2018-08-31T04:49:08.189Z,1.37
2018-08-31T04:51:36.674Z,2.03
2018-08-31T04:54:05.426Z,2.43
2018-08-31T04:56:34.196Z,2.03
2018-08-31T04:59:05.045Z,2.30
2018-08-31T05:01:33.963Z,1.93
2018-08-31T05:04:02.696Z,2.20
2018-08-31T05:06:35.436Z,2.00
2018-08-31T05:09:05.518Z,1.60
2018-08-31T05:11:34.452Z,2.07
2018-08-31T05:14:03.170Z,1.70
2018-08-31T05:16:32.100Z,2.10
2018-08-31T05:19:00.660Z,1.50
2018-08-31T05:21:29.584Z,2.50
2018-08-31T05:23:58.297Z,2.17
2018-08-31T05:26:27.351Z,2.07
2018-08-31T05:29:04.248Z,1.87
2018-08-31T05:31:33.122Z,1.57
2018-08-31T05:34:06.503Z,2.07
2018-08-31T05:36:34.985Z,1.70
2018-08-31T05:39:08.498Z,2.00
2018-08-31T05:41:37.216Z,1.77
2018-08-31T05:44:05.694Z,2.00
2018-08-31T05:46:34.848Z,2.47
2018-08-31T05:49:03.467Z,2.50
2018-08-31T05:51:32.891Z,2.07
2018-08-31T05:54:01.930Z,2.37
2018-08-31T05:56:30.500Z,2.57
2018-08-31T05:58:59.192Z,2.27
2018-08-31T06:01:27.870Z,2.40
2018-08-31T06:03:56.566Z,2.17
2018-08-31T06:06:25.246Z,2.37
2018-08-31T06:08:53.922Z,2.30
2018-08-31T06:11:22.732Z,2.43
2018-08-31T06:13:51.303Z,2.27
2018-08-31T06:16:20.132Z,2.73
2018-08-31T06:18:48.696Z,2.50
2018-08-31T06:21:19.518Z,2.80
2018-08-31T06:23:48.058Z,3.03
2018-08-31T06:26:16.964Z,2.57
2018-08-31T06:28:46.048Z,3.10
2018-08-31T06:31:14.736Z,2.43
2018-08-31T06:33:43.625Z,2.40
2018-08-31T06:36:14.051Z,1.87
2018-08-31T06:38:42.716Z,2.43
2018-08-31T06:41:11.584Z,2.57
2018-08-31T06:43:40.576Z,2.57
2018-08-31T06:46:09.176Z,2.63
2018-08-31T06:48:40.099Z,2.37
2018-08-31T06:51:08.890Z,2.83
2018-08-31T06:53:38.089Z,2.33
2018-08-31T06:56:06.639Z,2.67
2018-08-31T06:58:35.337Z,2.67
2018-08-31T07:01:03.907Z,2.30
2018-08-31T07:03:32.514Z,2.73
2018-08-31T07:06:01.549Z,2.07
2018-08-31T07:08:30.135Z,1.87
2018-08-31T07:10:58.822Z,2.30
2018-08-31T07:13:27.406Z,1.40
2018-08-31T07:18:10.735Z,1.53
2018-08-31T07:20:39.435Z,1.60
2018-08-31T07:23:08.167Z,1.37
2018-08-31T07:25:37.206Z,1.40
2018-08-31T07:28:05.897Z,0.83
2018-08-31T07:30:34.483Z,1.60
2018-08-31T07:33:03.180Z,1.70
